Time;durP1;ratioP1;P1;durP2;ratioP2;P2;SDS_P1;SDS_P2;PMS_P1;PMS_P2;Temp;Humidity;BMP_temperature;BMP_pressure;BME280_temperature;BME280_humidity;BME280_pressure;Samples;Min_cycle;Max_cycle;Signal;HPM_P1;HPM_P2
2024/04/16 00:00:15;;;;;;;11.32;4.75;;;;;;;16.61;100.00;97282.47;5400495;26;20021;-67
2024/04/16 00:02:40;;;;;;;11.52;5.75;;;;;;;16.30;100.00;97275.44;5465193;26;19999;-67
2024/04/16 00:05:06;;;;;;;10.63;5.40;;;;;;;16.27;100.00;97270.66;5409034;26;20592;-68
2024/04/16 00:07:31;;;;;;;15.27;5.78;;;;;;;16.36;100.00;97255.47;5440769;26;20020;-67
2024/04/16 00:09:57;;;;;;;13.25;5.65;;;;;;;16.53;100.00;97256.50;5431858;26;20019;-67
2024/04/16 00:12:22;;;;;;;10.27;5.18;;;;;;;16.25;100.00;97210.53;5418105;26;19994;-68
2024/04/16 00:14:47;;;;;;;14.63;6.47;;;;;;;16.48;100.00;97241.41;5412660;26;20009;-67
2024/04/16 00:17:15;;;;;;;10.80;5.78;;;;;;;16.05;100.00;97238.75;5443723;26;19995;-67
2024/04/16 00:19:41;;;;;;;12.25;5.55;;;;;;;16.28;100.00;97238.16;5421688;26;20342;-68
2024/04/16 00:22:06;;;;;;;11.20;6.00;;;;;;;16.35;100.00;97249.38;5395396;26;20010;-67
2024/04/16 00:24:31;;;;;;;11.25;5.88;;;;;;;16.01;100.00;97248.03;5443858;26;20007;-67
2024/04/16 00:27:02;;;;;;;11.05;6.07;;;;;;;15.89;100.00;97212.03;5446539;26;20006;-68
2024/04/16 00:29:27;;;;;;;10.15;5.72;;;;;;;16.23;100.00;97251.91;5428585;26;19991;-67
2024/04/16 00:31:52;;;;;;;12.68;5.60;;;;;;;16.34;100.00;97234.69;5441839;26;19999;-70
2024/04/16 00:34:18;;;;;;;10.57;5.72;;;;;;;16.34;100.00;97227.59;5421205;26;20017;-69
2024/04/16 00:36:45;;;;;;;10.82;5.78;;;;;;;16.42;100.00;97220.47;5432247;26;20009;-70
2024/04/16 00:39:13;;;;;;;12.52;5.97;;;;;;;16.50;100.00;97223.63;5446100;26;20009;-69
2024/04/16 00:41:42;;;;;;;11.30;5.97;;;;;;;16.49;100.00;97216.78;5419020;26;20667;-68
2024/04/16 00:44:09;;;;;;;10.00;5.63;;;;;;;16.04;100.00;97200.44;5446685;26;20006;-67
2024/04/16 00:46:35;;;;;;;10.88;6.10;;;;;;;16.07;100.00;97186.91;5444965;26;20206;-67
2024/04/16 00:49:00;;;;;;;11.27;5.75;;;;;;;15.76;100.00;97154.47;5449470;26;20010;-70
2024/04/16 00:51:30;;;;;;;9.65;5.70;;;;;;;16.15;100.00;97184.00;5414812;26;19991;-70
2024/04/16 00:54:01;;;;;;;10.10;5.85;;;;;;;15.82;100.00;97130.03;5441186;26;20052;-70
2024/04/16 00:56:27;;;;;;;12.10;6.53;;;;;;;15.84;100.00;97172.53;5424068;26;19999;-65
2024/04/16 00:58:52;;;;;;;13.48;7.05;;;;;;;16.02;100.00;97160.50;5414031;26;20017;-70
2024/04/16 01:01:18;;;;;;;11.38;5.47;;;;;;;16.10;100.00;97158.44;5388696;26;20064;-69
2024/04/16 01:03:44;;;;;;;13.02;6.25;;;;;;;15.90;100.00;97160.44;5420251;26;20080;-69
2024/04/16 01:06:12;;;;;;;11.18;6.07;;;;;;;16.03;100.00;97162.94;5388830;26;20004;-68
2024/04/16 01:08:37;;;;;;;9.98;6.45;;;;;;;15.99;100.00;97150.44;5409671;26;19995;-68
2024/04/16 01:11:05;;;;;;;10.57;6.50;;;;;;;16.17;100.00;97147.06;5426098;26;20018;-69
2024/04/16 01:13:33;;;;;;;14.93;6.60;;;;;;;16.18;100.00;97146.84;5408605;26;20425;-69
2024/04/16 01:15:59;;;;;;;14.27;7.07;;;;;;;15.95;100.00;97145.66;5476640;25;20054;-69
2024/04/16 01:18:24;;;;;;;14.27;6.35;;;;;;;15.94;100.00;97146.66;5418087;26;20957;-70
2024/04/16 01:20:50;;;;;;;14.00;7.07;;;;;;;15.86;100.00;97136.47;5387577;26;20012;-69
2024/04/16 01:23:18;;;;;;;9.45;6.18;;;;;;;16.06;100.00;97138.91;5424905;26;20003;-69
2024/04/16 01:25:45;;;;;;;12.52;6.40;;;;;;;16.09;100.00;97138.47;5430662;26;20007;-69
2024/04/16 01:28:11;;;;;;;11.88;6.25;;;;;;;16.10;100.00;97118.31;5397182;26;20037;-69
2024/04/16 01:30:38;;;;;;;10.90;6.15;;;;;;;15.95;100.00;97119.44;5430332;26;20002;-69
2024/04/16 01:33:04;;;;;;;10.55;6.80;;;;;;;15.95;100.00;97093.22;5384135;26;20353;-69
2024/04/16 01:35:29;;;;;;;15.40;6.90;;;;;;;16.07;100.00;97098.56;5427935;26;20028;-69
2024/04/16 01:37:57;;;;;;;8.57;5.78;;;;;;;16.19;100.00;97092.59;5398949;26;20027;-69
2024/04/16 01:40:23;;;;;;;12.40;6.63;;;;;;;16.25;100.00;97089.91;5427865;26;20013;-71
2024/04/16 01:42:48;;;;;;;12.45;6.65;;;;;;;16.07;100.00;97097.75;5423088;26;20040;-68
2024/04/16 01:45:16;;;;;;;11.15;6.40;;;;;;;16.08;100.00;97099.34;5398133;26;20727;-69
2024/04/16 01:47:43;;;;;;;13.25;6.68;;;;;;;15.81;100.00;97094.38;5399621;26;20018;-69
2024/04/16 01:50:09;;;;;;;12.18;6.50;;;;;;;15.91;100.00;97099.91;5423970;26;20010;-68
2024/04/16 01:52:34;;;;;;;12.23;6.20;;;;;;;15.63;100.00;97060.22;5417157;26;19994;-69
2024/04/16 01:55:00;;;;;;;10.75;6.10;;;;;;;15.64;100.00;97090.63;5429087;26;20030;-68
2024/04/16 01:57:25;;;;;;;14.10;6.55;;;;;;;15.81;100.00;97080.44;5438589;26;20906;-69
2024/04/16 01:59:53;;;;;;;13.13;7.20;;;;;;;15.40;100.00;97047.72;5423389;26;20014;-69
2024/04/16 02:02:18;;;;;;;11.93;7.35;;;;;;;15.65;100.00;97077.31;5414948;26;20018;-69
2024/04/16 02:04:46;;;;;;;13.23;7.50;;;;;;;15.60;100.00;97076.38;5434402;26;20005;-69
2024/04/16 02:07:11;;;;;;;13.93;7.47;;;;;;;15.68;100.00;97071.66;5401978;26;20026;-69
2024/04/16 02:09:36;;;;;;;14.75;7.75;;;;;;;15.05;100.00;97054.19;5427456;26;20441;-69
2024/04/16 02:12:02;;;;;;;11.25;7.40;;;;;;;15.13;100.00;97061.81;5422103;26;20026;-67
2024/04/16 02:14:28;;;;;;;14.52;8.00;;;;;;;14.97;100.00;97055.25;5419662;26;20006;-67
2024/04/16 02:16:53;;;;;;;12.20;7.28;;;;;;;14.97;100.00;97017.81;5397592;26;19995;-68
2024/04/16 02:19:18;;;;;;;12.43;7.30;;;;;;;15.28;100.00;97043.16;5398543;26;21001;-67
2024/04/16 02:21:44;;;;;;;11.68;6.97;;;;;;;15.25;100.00;97042.78;5428933;26;20079;-67
2024/04/16 02:24:09;;;;;;;11.15;7.25;;;;;;;15.44;100.00;97041.84;5430251;26;20006;-67
2024/04/16 02:26:35;;;;;;;11.77;7.20;;;;;;;15.46;100.00;97039.81;5432123;26;21586;-69
2024/04/16 02:29:00;;;;;;;12.40;7.75;;;;;;;15.60;100.00;97047.56;5438046;26;19991;-67
2024/04/16 02:31:27;;;;;;;14.77;7.60;;;;;;;15.42;100.00;97038.63;5425649;26;20022;-68
2024/04/16 02:33:52;;;;;;;14.95;7.75;;;;;;;15.22;100.00;97048.44;5397978;26;20006;-68
2024/04/16 02:36:18;;;;;;;13.10;7.63;;;;;;;14.79;100.00;97023.75;5429187;26;19999;-67
2024/04/16 02:38:43;;;;;;;12.18;7.68;;;;;;;14.79;100.00;97024.56;5397352;26;20011;-67
2024/04/16 02:41:11;;;;;;;10.65;8.20;;;;;;;14.97;100.00;97023.06;5453255;26;20018;-67
2024/04/16 02:43:36;;;;;;;11.95;6.95;;;;;;;15.08;100.00;97011.91;5425740;26;20550;-67
2024/04/16 02:46:02;;;;;;;11.35;7.88;;;;;;;15.16;100.00;97003.78;5427182;26;20006;-67
2024/04/16 02:48:27;;;;;;;17.77;7.70;;;;;;;15.27;100.00;97006.72;5426496;26;20006;-68
2024/04/16 02:50:54;;;;;;;12.90;7.20;;;;;;;15.10;100.00;96982.91;5394907;26;20003;-68
2024/04/16 02:53:19;;;;;;;11.73;7.85;;;;;;;15.11;100.00;97003.63;5428715;26;20005;-67
2024/04/16 02:55:44;;;;;;;10.57;7.60;;;;;;;15.27;100.00;96993.63;5417610;26;20026;-68
2024/04/16 02:58:10;;;;;;;13.65;7.53;;;;;;;15.35;100.00;96993.34;5398176;26;19998;-68
2024/04/16 03:00:39;;;;;;;12.90;7.82;;;;;;;15.05;100.00;96990.59;5443458;26;20834;-68
2024/04/16 03:03:04;;;;;;;12.57;7.53;;;;;;;14.98;100.00;96956.59;5409962;26;20010;-68
2024/04/16 03:05:30;;;;;;;11.40;7.32;;;;;;;15.16;100.00;96988.06;5392385;26;20448;-67
2024/04/16 03:07:55;;;;;;;11.30;7.80;;;;;;;14.95;100.00;96989.25;5429267;26;20009;-68
2024/04/16 03:10:24;;;;;;;14.50;7.82;;;;;;;14.43;100.00;96952.69;5426882;26;20849;-68
2024/04/16 03:12:54;;;;;;;11.18;8.00;;;;;;;14.25;100.00;96936.09;5404286;26;20098;-67
2024/04/16 03:15:22;;;;;;;12.55;7.75;;;;;;;14.58;100.00;96968.16;5417516;26;20858;-67
2024/04/16 03:17:51;;;;;;;12.43;8.38;;;;;;;14.52;100.00;96958.47;5414444;26;20025;-68
2024/04/16 03:20:18;;;;;;;15.25;9.43;;;;;;;14.22;100.00;96964.28;5403831;26;19991;-67
2024/04/16 03:22:44;;;;;;;11.48;8.10;;;;;;;14.22;100.00;96945.97;5429673;26;19994;-67
2024/04/16 03:25:09;;;;;;;14.60;9.35;;;;;;;14.16;100.00;96946.00;5433105;26;19998;-67
2024/04/16 03:27:35;;;;;;;13.43;9.15;;;;;;;14.10;100.00;96910.25;5437059;26;20014;-68
2024/04/16 03:30:02;;;;;;;14.77;8.75;;;;;;;14.02;100.00;96904.25;5434672;26;20006;-67
2024/04/16 03:32:28;;;;;;;14.63;9.15;;;;;;;14.41;100.00;96928.56;5431071;26;20003;-67
2024/04/16 03:34:53;;;;;;;16.85;9.05;;;;;;;14.55;100.00;96936.34;5395527;26;20468;-69
2024/04/16 03:37:21;;;;;;;13.57;8.18;;;;;;;14.39;100.00;96893.19;5439221;26;20000;-70
2024/04/16 03:39:48;;;;;;;12.55;7.78;;;;;;;14.56;100.00;96907.34;5391973;26;20030;-69
2024/04/16 03:42:14;;;;;;;13.98;7.93;;;;;;;14.80;100.00;96941.63;5436789;26;20176;-70
2024/04/16 03:44:41;;;;;;;14.75;8.43;;;;;;;14.69;100.00;96930.03;5406572;26;20002;-70
2024/04/16 03:47:07;;;;;;;16.38;8.50;;;;;;;14.86;100.00;96935.56;5412446;26;20002;-69
2024/04/16 03:49:32;;;;;;;15.20;8.50;;;;;;;14.60;100.00;96907.75;5436776;26;20018;-69
2024/04/16 03:51:58;;;;;;;12.15;8.25;;;;;;;14.53;100.00;96933.13;5433133;26;20013;-71
2024/04/16 03:54:25;;;;;;;13.18;8.68;;;;;;;14.59;100.00;96917.44;5433978;26;20286;-68
2024/04/16 03:56:51;;;;;;;13.85;9.68;;;;;;;14.49;100.00;96919.66;5423018;26;19994;-70
2024/04/16 03:59:38;;;;;;;16.42;8.68;;;;;;;14.42;100.00;96909.25;5434252;26;20014;-70
2024/04/16 04:02:02;;;;;;;13.98;8.50;;;;;;;14.41;100.00;96899.81;5425104;26;19994;-69
2024/04/16 04:04:27;;;;;;;16.20;8.68;;;;;;;14.53;100.00;96906.97;5429195;26;20006;-69
2024/04/16 04:06:53;;;;;;;11.00;7.90;;;;;;;14.41;100.00;96902.41;5431439;26;20347;-69
2024/04/16 04:09:18;;;;;;;13.82;8.98;;;;;;;14.47;100.00;96900.78;5399683;26;20066;-69
2024/04/16 04:11:43;;;;;;;12.35;8.55;;;;;;;14.54;100.00;96892.88;5398194;26;20008;-69
2024/04/16 04:14:09;;;;;;;13.95;8.68;;;;;;;14.34;100.00;96890.41;5433062;26;20026;-69
2024/04/16 04:16:34;;;;;;;14.35;8.88;;;;;;;14.46;100.00;96888.72;5502474;25;20932;-69
2024/04/16 04:19:00;;;;;;;13.85;8.77;;;;;;;14.20;100.00;96895.72;5427121;26;19994;-69
2024/04/16 04:21:25;;;;;;;13.52;8.48;;;;;;;14.15;100.00;96882.47;5404203;26;19991;-69
2024/04/16 04:23:55;;;;;;;13.90;8.68;;;;;;;14.10;100.00;96873.66;5398281;26;20015;-70
2024/04/16 04:26:21;;;;;;;13.55;9.25;;;;;;;14.10;100.00;96877.06;5398894;26;20010;-67
2024/04/16 04:28:48;;;;;;;14.23;8.85;;;;;;;14.34;100.00;96885.97;5443628;26;20080;-66
2024/04/16 04:31:15;;;;;;;14.60;9.38;;;;;;;14.28;100.00;96886.81;5406535;26;20460;-70
2024/04/16 04:33:43;;;;;;;14.15;9.25;;;;;;;14.41;100.00;96881.50;5400449;26;20736;-69
2024/04/16 04:36:11;;;;;;;14.02;9.35;;;;;;;14.26;100.00;96883.63;5429681;26;19995;-69
2024/04/16 04:38:37;;;;;;;14.73;9.43;;;;;;;14.42;100.00;96866.63;5431484;26;20010;-69
2024/04/16 04:41:03;;;;;;;15.88;9.80;;;;;;;14.67;100.00;96882.34;5445511;26;19998;-69
2024/04/16 04:43:28;;;;;;;16.85;10.00;;;;;;;14.65;100.00;96873.13;5439259;26;21437;-69
2024/04/16 04:45:53;;;;;;;15.32;9.52;;;;;;;14.70;100.00;96878.53;5486177;25;20021;-69
2024/04/16 04:48:19;;;;;;;13.95;9.23;;;;;;;14.50;100.00;96863.75;5400162;26;20466;-70
2024/04/16 04:50:47;;;;;;;14.40;8.45;;;;;;;14.71;100.00;96887.97;5422598;26;20018;-70
2024/04/16 04:53:12;;;;;;;14.60;8.65;;;;;;;14.73;100.00;96889.38;5421578;26;20015;-69
2024/04/16 04:55:37;;;;;;;14.63;9.10;;;;;;;14.70;100.00;96883.75;5404422;26;21100;-70
2024/04/16 04:58:03;;;;;;;15.55;9.20;;;;;;;14.49;100.00;96853.50;5429485;26;20009;-70
2024/04/16 05:00:28;;;;;;;15.68;9.43;;;;;;;14.72;100.00;96887.75;5427887;26;20136;-69
2024/04/16 05:02:59;;;;;;;17.70;9.55;;;;;;;14.67;100.00;96839.72;5427682;26;20034;-69
2024/04/16 05:05:26;;;;;;;13.43;9.50;;;;;;;14.75;100.00;96878.69;5403848;26;20013;-70
2024/04/16 05:07:57;;;;;;;12.02;8.90;;;;;;;14.51;100.00;96875.00;5396753;26;20490;-70
2024/04/16 05:10:24;;;;;;;14.55;9.23;;;;;;;14.14;100.00;96810.28;5435156;26;20007;-70
2024/04/16 05:12:49;;;;;;;14.48;9.32;;;;;;;14.64;100.00;96874.94;5400111;26;20007;-70
2024/04/16 05:15:15;;;;;;;13.15;8.95;;;;;;;14.61;100.00;96880.59;5432931;26;20009;-69
2024/04/16 05:17:40;;;;;;;14.85;9.57;;;;;;;14.61;100.00;96883.22;5445545;26;20156;-67
2024/04/16 05:20:07;;;;;;;16.17;10.00;;;;;;;14.19;100.00;96867.97;5426669;26;21007;-68
2024/04/16 05:22:33;;;;;;;16.45;9.93;;;;;;;13.91;100.00;96863.09;5425467;26;20015;-68
2024/04/16 05:24:59;;;;;;;15.23;9.68;;;;;;;14.18;100.00;96860.31;5432143;26;20176;-68
2024/04/16 05:27:24;;;;;;;16.40;9.48;;;;;;;13.98;100.00;96819.44;5426424;26;20105;-68
2024/04/16 05:29:50;;;;;;;13.23;9.25;;;;;;;14.41;100.00;96846.72;5408824;26;20396;-66
2024/04/16 05:32:15;;;;;;;15.63;8.30;;;;;;;14.53;100.00;96852.88;5395240;26;19995;-68
2024/04/16 05:34:41;;;;;;;15.23;8.60;;;;;;;14.54;100.00;96858.91;5410814;26;20003;-69
2024/04/16 05:37:07;;;;;;;13.27;7.75;;;;;;;14.37;100.00;96846.34;5460257;26;20610;-69
2024/04/16 05:39:32;;;;;;;13.73;7.68;;;;;;;14.34;100.00;96862.44;5446175;26;20021;-68
2024/04/16 05:41:58;;;;;;;11.77;7.88;;;;;;;14.15;100.00;96839.84;5396844;26;20002;-68
2024/04/16 05:44:25;;;;;;;13.02;7.03;;;;;;;14.40;100.00;96868.63;5394960;26;20011;-69
2024/04/16 05:46:54;;;;;;;11.85;6.15;;;;;;;14.43;100.00;96869.00;5416489;26;20598;-68
2024/04/16 05:49:20;;;;;;;10.82;5.38;;;;;;;14.37;100.00;96841.09;5394502;26;20002;-70
2024/04/16 05:51:46;;;;;;;7.85;4.13;;;;;;;14.60;100.00;96834.53;5435450;26;20014;-69
2024/04/16 05:54:11;;;;;;;8.27;3.90;;;;;;;14.90;98.59;96850.38;5428727;26;20007;-68
2024/04/16 05:56:36;;;;;;;9.98;3.80;;;;;;;15.04;93.00;96856.31;5428636;26;20046;-68
2024/04/16 05:59:05;;;;;;;8.35;2.95;;;;;;;15.14;84.95;96855.78;5426977;26;20100;-68
2024/04/16 06:01:31;;;;;;;7.10;2.95;;;;;;;15.18;79.92;96849.91;5404190;26;20469;-69
2024/04/16 06:04:01;;;;;;;6.40;2.65;;;;;;;15.46;78.88;96850.41;5434281;26;19999;-69
2024/04/16 06:06:28;;;;;;;8.52;2.50;;;;;;;15.38;77.07;96854.94;5426035;26;20888;-69
2024/04/16 06:08:54;;;;;;;8.43;2.83;;;;;;;15.11;80.18;96803.88;5424336;26;20022;-68
2024/04/16 06:11:19;;;;;;;8.80;2.80;;;;;;;15.18;77.78;96843.88;5436698;26;20642;-69
2024/04/16 06:13:44;;;;;;;5.70;2.20;;;;;;;15.32;72.72;96847.94;5429584;26;20087;-70
2024/04/16 06:16:12;;;;;;;7.38;3.03;;;;;;;15.34;81.95;96834.66;5423646;26;20007;-69
2024/04/16 06:18:40;;;;;;;11.93;6.10;;;;;;;15.04;97.87;96835.38;5393389;26;20047;-68
2024/04/16 06:21:05;;;;;;;4.63;1.73;;;;;;;15.10;68.15;96838.94;5424908;26;19995;-69
2024/04/16 06:23:30;;;;;;;6.10;1.30;;;;;;;15.69;60.26;96834.84;5426282;26;20758;-69
2024/04/16 06:25:56;;;;;;;4.38;1.40;;;;;;;15.84;60.28;96839.72;5418472;26;20039;-67
2024/04/16 06:28:26;;;;;;;4.95;1.33;;;;;;;15.87;58.88;96835.88;5420457;26;19999;-67
2024/04/16 06:30:54;;;;;;;8.23;1.80;;;;;;;15.85;57.42;96816.94;5442642;26;20465;-68
2024/04/16 06:33:19;;;;;;;6.22;1.38;;;;;;;15.92;55.35;96813.22;5397615;26;20146;-69
2024/04/16 06:35:47;;;;;;;4.53;1.17;;;;;;;15.93;54.67;96814.81;5401983;26;20035;-67
2024/04/16 06:38:12;;;;;;;5.43;1.20;;;;;;;16.23;49.80;96790.38;5424947;26;19995;-65
2024/04/16 06:40:38;;;;;;;2.65;0.80;;;;;;;16.41;46.86;96791.31;5396090;26;20014;-66
2024/04/16 06:43:03;;;;;;;2.28;0.70;;;;;;;16.52;47.09;96782.69;5394131;26;19999;-69
2024/04/16 06:45:29;;;;;;;5.28;0.95;;;;;;;16.64;46.31;96778.22;5428096;26;19999;-68
2024/04/16 06:47:54;;;;;;;2.30;0.63;;;;;;;16.62;42.08;96761.13;5433203;26;20002;-69
2024/04/16 06:50:22;;;;;;;3.05;0.70;;;;;;;16.81;40.75;96786.22;5394810;26;20131;-69
2024/04/16 06:52:47;;;;;;;1.98;0.52;;;;;;;16.84;41.42;96788.41;5432223;26;21010;-70
2024/04/16 06:55:13;;;;;;;2.42;0.60;;;;;;;16.59;38.37;96738.78;5402979;26;20007;-68
2024/04/16 06:57:40;;;;;;;2.97;0.60;;;;;;;17.16;34.22;96758.34;5435571;26;20027;-67
2024/04/16 07:00:10;;;;;;;1.55;0.43;;;;;;;17.17;36.35;96773.06;5445316;26;20005;-67
2024/04/16 07:02:35;;;;;;;;;;;;;;;17.08;40.02;96767.38;5430007;26;20110;-69
2024/04/16 07:05:01;;;;;;;2.03;0.65;;;;;;;17.06;39.00;96775.47;5403100;26;19993;-69
2024/04/16 07:07:26;;;;;;;1.73;0.43;;;;;;;17.39;32.73;96760.09;5426109;26;20442;-67
2024/04/16 07:09:51;;;;;;;1.80;0.45;;;;;;;17.18;35.09;96740.53;5397573;26;19994;-68
2024/04/16 07:12:19;;;;;;;2.78;0.40;;;;;;;17.36;33.42;96766.63;5435298;26;20194;-68
2024/04/16 07:14:47;;;;;;;2.15;0.43;;;;;;;17.56;31.34;96762.78;5428718;26;19994;-67
2024/04/16 07:17:12;;;;;;;3.22;0.60;;;;;;;17.49;30.40;96795.25;5431938;26;20009;-67
2024/04/16 07:19:39;;;;;;;2.50;0.45;;;;;;;17.71;29.86;96770.97;5427824;26;20015;-68
2024/04/16 07:22:04;;;;;;;3.00;0.40;;;;;;;17.65;31.00;96753.50;5435352;26;20017;-67
2024/04/16 07:24:30;;;;;;;1.23;0.43;;;;;;;17.76;29.36;96772.88;5400383;26;19995;-67
2024/04/16 07:26:55;;;;;;;2.90;0.47;;;;;;;17.81;29.24;96775.59;5423402;26;20117;-67
2024/04/16 07:29:20;;;;;;;2.30;0.60;;;;;;;17.70;31.42;96805.38;5425690;26;20899;-68
2024/04/16 07:31:46;;;;;;;1.38;0.40;;;;;;;17.82;29.27;96774.59;5426987;26;20083;-67
2024/04/16 07:34:11;;;;;;;1.05;0.20;;;;;;;17.71;31.16;96781.47;5397355;26;20086;-68
2024/04/16 07:36:39;;;;;;;1.27;0.20;;;;;;;17.44;32.41;96737.34;5413201;26;20017;-67
2024/04/16 07:39:05;;;;;;;1.25;0.25;;;;;;;17.88;30.25;96780.75;5390447;26;19995;-67
2024/04/16 07:41:30;;;;;;;1.55;0.30;;;;;;;17.72;31.57;96774.38;5375733;26;20017;-68
2024/04/16 07:43:56;;;;;;;1.17;0.32;;;;;;;17.82;26.76;96769.31;5427433;26;20529;-69
2024/04/16 07:46:21;;;;;;;1.30;0.32;;;;;;;17.68;27.32;96758.28;5430301;26;20007;-67
2024/04/16 07:48:47;;;;;;;1.27;0.35;;;;;;;17.82;27.95;96801.66;5400205;26;20018;-67
2024/04/16 07:51:12;;;;;;;0.90;0.20;;;;;;;17.93;28.03;96794.00;5430792;26;20814;-68
2024/04/16 07:53:38;;;;;;;2.35;0.30;;;;;;;17.68;29.91;96784.56;5426920;26;20016;-67
2024/04/16 07:56:04;;;;;;;1.35;0.35;;;;;;;17.82;27.04;96806.91;5429426;26;20866;-69
2024/04/16 07:58:32;;;;;;;0.68;0.20;;;;;;;17.77;30.27;96798.94;5410636;26;19999;-67
2024/04/16 08:00:58;;;;;;;3.15;0.82;;;;;;;17.90;26.26;96816.28;5447180;26;20025;-67
2024/04/16 08:03:25;;;;;;;2.00;0.50;;;;;;;17.96;27.19;96796.13;5399502;26;19999;-69
2024/04/16 08:05:51;;;;;;;4.18;0.75;;;;;;;17.90;27.94;96799.72;5404123;26;20010;-69
2024/04/16 08:08:17;;;;;;;0.85;0.28;;;;;;;17.73;28.71;96768.13;5399759;26;20773;-66
2024/04/16 08:10:44;;;;;;;3.42;0.60;;;;;;;17.85;26.35;96782.81;5397493;26;20592;-66
2024/04/16 08:13:10;;;;;;;3.63;1.00;;;;;;;17.88;26.94;96799.16;5439631;26;20381;-69
2024/04/16 08:15:37;;;;;;;0.60;0.20;;;;;;;17.87;24.56;96774.72;5405500;26;19999;-69
2024/04/16 08:18:05;;;;;;;5.13;1.30;;;;;;;18.04;24.86;96816.81;5429732;26;20006;-70
2024/04/16 08:20:31;;;;;;;1.80;0.38;;;;;;;17.76;27.38;96752.66;5413218;26;20013;-68
2024/04/16 08:23:01;;;;;;;4.22;1.25;;;;;;;18.06;23.85;96820.00;5426649;26;20002;-67
2024/04/16 08:25:26;;;;;;;2.22;0.50;;;;;;;18.21;24.23;96775.53;5428261;26;20029;-67
2024/04/16 08:27:52;;;;;;;2.60;0.77;;;;;;;18.21;23.49;96812.34;5416091;26;20355;-66
2024/04/16 08:30:19;;;;;;;0.63;0.28;;;;;;;18.62;25.74;96801.72;5405821;26;20013;-67
2024/04/16 08:32:45;;;;;;;2.47;0.20;;;;;;;19.48;24.46;96816.31;5424291;26;20077;-67
2024/04/16 08:35:22;;;;;;;3.13;0.50;;;;;;;19.61;23.06;96823.06;5398417;26;20718;-68
2024/04/16 08:37:47;;;;;;;1.20;0.20;;;;;;;19.93;24.87;96855.63;5416263;26;19999;-69
2024/04/16 08:40:12;;;;;;;3.17;0.60;;;;;;;19.80;24.43;96842.81;5426584;26;20014;-69
2024/04/16 08:42:41;;;;;;;2.97;0.85;;;;;;;20.08;22.51;96838.34;5398274;26;20122;-67
2024/04/16 08:45:07;;;;;;;3.13;0.73;;;;;;;20.21;25.62;96863.56;5395659;26;20042;-67
2024/04/16 08:47:33;;;;;;;1.75;0.50;;;;;;;19.91;25.35;96846.34;5442997;26;20000;-67
2024/04/16 08:49:59;;;;;;;0.65;0.20;;;;;;;19.81;26.03;96830.44;5417141;26;20472;-69
2024/04/16 08:52:26;;;;;;;1.40;0.35;;;;;;;19.59;24.32;96849.66;5424731;26;20010;-68
2024/04/16 08:54:52;;;;;;;4.00;0.60;;;;;;;19.40;23.05;96859.69;5406013;26;20089;-67
2024/04/16 08:57:18;;;;;;;1.88;0.40;;;;;;;18.81;26.71;96881.25;5399352;26;20006;-67
2024/04/16 08:59:44;;;;;;;1.02;0.30;;;;;;;18.62;25.82;96864.88;5460110;26;19995;-67
2024/04/16 09:02:10;;;;;;;1.90;0.50;;;;;;;18.63;23.09;96859.34;5427212;26;21521;-68
2024/04/16 09:04:39;;;;;;;2.40;0.70;;;;;;;18.53;23.83;96853.94;5393679;26;20167;-70
2024/04/16 09:07:05;;;;;;;0.73;0.20;;;;;;;18.36;24.68;96822.34;5419245;26;20075;-69
2024/04/16 09:09:31;;;;;;;1.08;0.30;;;;;;;18.36;26.39;96835.50;5430044;26;20009;-69
2024/04/16 09:11:56;;;;;;;0.80;0.20;;;;;;;18.34;24.42;96860.44;5447485;26;20067;-68
2024/04/16 09:14:21;;;;;;;1.65;0.57;;;;;;;18.54;24.67;96863.41;5399728;26;20568;-68
2024/04/16 09:16:47;;;;;;;1.20;0.20;;;;;;;18.39;26.00;96842.13;5392963;26;20018;-69
2024/04/16 09:19:13;;;;;;;6.32;0.22;;;;;;;18.29;24.35;96855.91;5436499;26;20075;-68
2024/04/16 09:21:43;;;;;;;1.00;0.20;;;;;;;18.31;26.42;96922.25;5411394;26;19999;-69
2024/04/16 09:24:11;;;;;;;1.33;0.30;;;;;;;18.46;23.58;96886.72;5417555;26;20011;-67
2024/04/16 09:26:37;;;;;;;0.98;0.20;;;;;;;18.29;23.96;96902.44;5397522;26;20714;-68
2024/04/16 09:29:05;;;;;;;0.20;0.10;;;;;;;18.22;26.45;96895.50;5429302;26;20009;-68
2024/04/16 09:31:31;;;;;;;0.65;0.15;;;;;;;18.22;26.68;96902.59;5405427;26;20003;-68
2024/04/16 09:34:07;;;;;;;1.50;0.20;;;;;;;18.06;27.42;96885.72;5403585;26;20017;-68
2024/04/16 09:36:35;;;;;;;0.68;0.10;;;;;;;18.11;27.06;96921.84;5401206;26;20837;-67
2024/04/16 09:39:03;;;;;;;1.15;0.30;;;;;;;18.24;22.53;96916.31;5421079;26;20019;-68
2024/04/16 09:41:29;;;;;;;0.43;0.10;;;;;;;18.18;27.40;96927.75;5432463;26;20056;-68
2024/04/16 09:43:57;;;;;;;1.25;0.25;;;;;;;18.22;28.19;96937.59;5427144;26;19998;-68
2024/04/16 09:46:24;;;;;;;0.95;0.22;;;;;;;18.03;28.11;96941.41;5436720;26;21241;-68
2024/04/16 09:48:50;;;;;;;0.80;0.20;;;;;;;18.20;27.88;96954.66;5435666;26;21068;-67
2024/04/16 09:51:17;;;;;;;0.75;0.20;;;;;;;18.18;24.40;96943.53;5439237;26;20018;-67
2024/04/16 09:53:43;;;;;;;2.22;0.28;;;;;;;18.15;26.37;96923.00;5425125;26;19998;-68
2024/04/16 09:56:09;;;;;;;2.63;0.40;;;;;;;17.95;26.50;96971.50;5447680;26;19999;-68
2024/04/16 09:58:36;;;;;;;3.50;0.95;;;;;;;17.87;27.55;96940.34;5449977;26;20042;-67
2024/04/16 10:01:03;;;;;;;1.33;0.30;;;;;;;18.16;26.16;96935.91;5397424;26;20089;-67
2024/04/16 10:03:32;;;;;;;0.57;0.10;;;;;;;18.01;24.00;96944.28;5392030;26;20442;-67
2024/04/16 10:05:57;;;;;;;0.55;0.20;;;;;;;18.10;24.53;96930.78;5422530;26;19999;-68
2024/04/16 10:08:29;;;;;;;0.55;0.20;;;;;;;18.27;22.71;96950.03;5400785;26;20013;-68
2024/04/16 10:10:57;;;;;;;1.00;0.20;;;;;;;18.31;25.06;96959.06;5398300;26;20071;-67
2024/04/16 10:13:24;;;;;;;0.17;0.10;;;;;;;18.04;26.71;96969.31;5429358;26;19998;-67
2024/04/16 10:15:50;;;;;;;0.55;0.10;;;;;;;17.88;25.21;96983.19;5423488;26;20054;-68
2024/04/16 10:18:15;;;;;;;2.40;0.20;;;;;;;17.84;22.88;96961.78;5442030;26;20006;-68
2024/04/16 10:20:57;;;;;;;1.02;0.20;;;;;;;17.90;26.64;96957.47;5413751;26;20003;-67
2024/04/16 10:23:22;;;;;;;0.68;0.17;;;;;;;17.94;26.38;96963.84;5407782;26;20011;-67
2024/04/16 10:25:49;;;;;;;1.58;0.10;;;;;;;17.68;25.62;96942.25;5412030;26;20017;-68
2024/04/16 10:28:26;;;;;;;0.20;0.10;;;;;;;17.89;24.46;96997.91;5406356;26;19999;-68
2024/04/16 10:31:10;;;;;;;0.28;0.10;;;;;;;17.97;26.37;96955.50;5446876;26;19998;-67
2024/04/16 10:33:40;;;;;;;0.30;0.08;;;;;;;17.83;27.30;96957.56;5424798;26;20314;-69
2024/04/16 10:36:07;;;;;;;;;;;;;;;17.88;24.55;96959.53;5464780;26;20076;-68
2024/04/16 10:38:37;;;;;;;0.50;0.10;;;;;;;17.94;22.30;96959.38;5406952;26;19932;-67
2024/04/16 10:41:03;;;;;;;2.55;0.20;;;;;;;18.12;24.77;96963.69;5434940;26;20071;-68
2024/04/16 10:43:28;;;;;;;0.77;0.20;;;;;;;18.16;22.13;97049.00;5406358;26;20067;-67
2024/04/16 10:45:55;;;;;;;0.45;0.08;;;;;;;17.92;21.10;96981.69;5415935;26;20026;-68
2024/04/16 10:48:21;;;;;;;0.93;0.20;;;;;;;17.91;26.48;96985.38;5455984;26;20155;-68
2024/04/16 10:50:48;;;;;;;1.73;0.40;;;;;;;17.95;23.16;96963.63;5428851;26;19991;-68
2024/04/16 10:53:14;;;;;;;0.10;0.10;;;;;;;18.16;20.68;96998.22;5432759;26;20051;-67
2024/04/16 10:55:43;;;;;;;0.10;0.10;;;;;;;17.99;20.30;96982.38;5396202;26;20005;-67
2024/04/16 10:58:15;;;;;;;0.32;0.10;;;;;;;18.01;20.67;96970.56;5434587;26;19998;-68
2024/04/16 11:00:41;;;;;;;0.28;0.10;;;;;;;17.90;22.27;96992.44;5418644;26;20026;-66
2024/04/16 11:03:11;;;;;;;0.45;0.13;;;;;;;17.99;23.65;96985.78;5430487;26;20104;-67
2024/04/16 11:05:39;;;;;;;0.50;0.10;;;;;;;18.22;20.72;96992.84;5402978;26;20043;-67
2024/04/16 11:08:08;;;;;;;0.45;0.15;;;;;;;18.11;20.43;96998.94;5422340;26;20013;-68
2024/04/16 11:10:36;;;;;;;1.70;0.40;;;;;;;18.02;19.86;97008.22;5438372;26;20010;-68
2024/04/16 11:13:04;;;;;;;3.60;0.30;;;;;;;18.40;19.39;96997.13;5436132;26;19998;-68
2024/04/16 11:15:36;;;;;;;1.88;0.30;;;;;;;18.01;21.77;97001.34;5437356;26;20056;-68
2024/04/16 11:18:02;;;;;;;0.43;0.10;;;;;;;17.99;25.23;96992.88;5430184;26;20568;-68
2024/04/16 11:20:28;;;;;;;0.35;0.10;;;;;;;17.94;25.90;96982.25;5401687;26;20035;-68